Huade, China
Current Conditions -  °F | °C
As of 4:00 PM on Friday 19 Dec 2014 (Local Time) from ZBHH Reporting Station
Clear Clear  
Wind Chill:   Ceiling: Unl
Heat Index: 18°   Visibility: 6mi
Dew Point: -2°   Wind: 13mph
Humidity: 42%   Direction: 330°NNW
Pressure: 30.3"   Gusts: NA
Location:  41.9°N, 114°E
Report Text: ZBHH 190800Z 33006MPS CAVOK M08/M19 Q1026 NOSIG
Loading
Personal Weather Stations






























Interactive Weather Map New forecast layout! Learn more

10-Day Weather Forecast

Advertisements
Track Severe Weather on mobile